Time,TemperatureF,DewpointF,PressureIn,WindDirection,WindDirectionDegrees,WindSpeedMPH,WindSpeedGustMPH,Humidity,HourlyPrecipIn,Conditions,Clouds,dailyrainin,SoftwareType,DateUTC
2013-10-29 00:13:00,46.0,45.7,30.14,East,90,0.0,-999.0,99,-99.99,,,0.00,Acu-Link.com,2013-10-29 04:13:00,
2013-10-29 00:29:00,45.5,45.2,30.14,East,90,0.0,-999.0,99,-99.99,,,0.00,Acu-Link.com,2013-10-29 04:29:00,
2013-10-29 00:44:00,45.1,44.8,30.14,East,90,0.0,-999.0,99,-99.99,,,0.00,Acu-Link.com,2013-10-29 04:44:00,
2013-10-29 00:59:00,44.8,44.5,30.15,East,90,0.0,-999.0,99,-99.99,,,0.00,Acu-Link.com,2013-10-29 04:59:00,
2013-10-29 01:14:00,44.6,44.3,30.15,NE,45,0.0,-999.0,99,-99.99,,,0.00,Acu-Link.com,2013-10-29 05:14:00,
2013-10-29 01:29:00,43.9,43.6,30.15,ESE,112,0.0,-999.0,99,-99.99,,,0.00,Acu-Link.com,2013-10-29 05:29:00,
2013-10-29 01:45:00,43.5,43.2,30.14,ESE,112,0.0,-999.0,99,-99.99,,,0.00,Acu-Link.com,2013-10-29 05:45:00,
2013-10-29 02:00:00,44.2,43.9,30.14,North,0,0.0,-999.0,99,-99.99,,,0.00,Acu-Link.com,2013-10-29 06:00:00,
2013-10-29 02:15:00,43.5,43.2,30.15,East,90,0.0,-999.0,99,-99.99,,,0.00,Acu-Link.com,2013-10-29 06:15:00,
2013-10-29 02:30:00,43.7,43.4,30.15,NE,45,0.0,-999.0,99,-99.99,,,0.00,Acu-Link.com,2013-10-29 06:30:00,
2013-10-29 02:45:00,43.2,42.9,30.15,NE,45,0.0,-999.0,99,-99.99,,,0.00,Acu-Link.com,2013-10-29 06:45:00,
2013-10-29 03:02:00,43.3,43.0,30.16,ENE,67,0.0,-999.0,99,-99.99,,,0.00,Acu-Link.com,2013-10-29 07:02:00,
2013-10-29 03:17:00,43.5,43.2,30.15,NNE,22,0.0,-999.0,99,-99.99,,,0.00,Acu-Link.com,2013-10-29 07:17:00,
2013-10-29 03:32:00,43.0,42.7,30.16,NNE,22,0.0,-999.0,99,-99.99,,,0.00,Acu-Link.com,2013-10-29 07:32:00,
2013-10-29 03:47:00,43.2,42.9,30.16,NNE,22,0.0,-999.0,99,-99.99,,,0.00,Acu-Link.com,2013-10-29 07:47:00,
2013-10-29 04:02:00,43.0,42.7,30.16,NNE,22,0.0,-999.0,99,-99.99,,,0.00,Acu-Link.com,2013-10-29 08:02:00,
2013-10-29 04:18:00,42.8,42.5,30.15,NNE,22,0.0,-999.0,99,-99.99,,,0.00,Acu-Link.com,2013-10-29 08:18:00,
2013-10-29 04:33:00,42.1,41.8,30.16,NNE,22,0.0,-999.0,99,-99.99,,,0.00,Acu-Link.com,2013-10-29 08:33:00,
2013-10-29 04:48:00,42.1,41.8,30.16,NNE,22,0.0,-999.0,99,-99.99,,,0.00,Acu-Link.com,2013-10-29 08:48:00,
2013-10-29 05:03:00,42.6,42.3,30.17,NE,45,0.0,-999.0,99,-99.99,,,0.00,Acu-Link.com,2013-10-29 09:03:00,
2013-10-29 05:18:00,42.8,42.5,30.16,NE,45,0.0,-999.0,99,-99.99,,,0.00,Acu-Link.com,2013-10-29 09:18:00,
2013-10-29 05:34:00,42.8,42.5,30.16,NNW,337,0.0,-999.0,99,-99.99,,,0.00,Acu-Link.com,2013-10-29 09:34:00,
2013-10-29 05:49:00,42.6,42.3,30.16,NNE,22,0.0,-999.0,99,-99.99,,,0.00,Acu-Link.com,2013-10-29 09:49:00,
2013-10-29 06:04:00,42.6,42.3,30.17,ENE,67,0.0,-999.0,99,-99.99,,,0.00,Acu-Link.com,2013-10-29 10:04:00,
2013-10-29 06:19:00,42.6,42.3,30.17,ENE,67,0.0,-999.0,99,-99.99,,,0.00,Acu-Link.com,2013-10-29 10:19:00,
2013-10-29 06:34:00,42.6,42.3,30.18,ENE,67,0.0,-999.0,99,-99.99,,,0.00,Acu-Link.com,2013-10-29 10:34:00,
2013-10-29 06:50:00,43.3,43.0,30.19,ENE,67,0.0,-999.0,99,-99.99,,,0.00,Acu-Link.com,2013-10-29 10:50:00,
2013-10-29 07:05:00,44.4,44.1,30.20,SE,135,0.0,-999.0,99,-99.99,,,0.00,Acu-Link.com,2013-10-29 11:05:00,
2013-10-29 07:20:00,45.0,44.7,30.19,SSW,202,0.0,-999.0,99,-99.99,,,0.00,Acu-Link.com,2013-10-29 11:20:00,
2013-10-29 07:35:00,45.1,44.8,30.19,East,90,0.0,-999.0,99,-99.99,,,0.00,Acu-Link.com,2013-10-29 11:35:00,
2013-10-29 07:50:00,45.1,44.8,30.18,ESE,112,0.0,-999.0,99,-99.99,,,0.00,Acu-Link.com,2013-10-29 11:50:00,
2013-10-29 08:06:00,45.1,44.8,30.17,East,90,0.0,-999.0,99,-99.99,,,0.00,Acu-Link.com,2013-10-29 12:06:00,
2013-10-29 08:21:00,45.1,44.8,30.17,SSE,157,0.0,-999.0,99,-99.99,,,0.00,Acu-Link.com,2013-10-29 12:21:00,
2013-10-29 08:36:00,45.7,45.4,30.17,South,180,0.0,-999.0,99,-99.99,,,0.00,Acu-Link.com,2013-10-29 12:36:00,
2013-10-29 08:51:00,47.1,46.8,30.17,SSE,157,0.0,-999.0,99,-99.99,,,0.00,Acu-Link.com,2013-10-29 12:51:00,
2013-10-29 09:07:00,48.6,48.3,30.18,SSE,157,0.0,-999.0,99,-99.99,,,0.00,Acu-Link.com,2013-10-29 13:07:00,
2013-10-29 09:22:00,49.6,49.3,30.18,East,90,0.0,-999.0,99,-99.99,,,0.00,Acu-Link.com,2013-10-29 13:22:00,
2013-10-29 09:37:00,50.9,50.6,30.17,SSE,157,0.0,-999.0,99,-99.99,,,0.00,Acu-Link.com,2013-10-29 13:37:00,
2013-10-29 09:52:00,52.7,52.4,30.18,ESE,112,1.7,-999.0,99,-99.99,,,0.00,Acu-Link.com,2013-10-29 13:52:00,
2013-10-29 10:07:00,52.9,52.6,30.20,ESE,112,2.2,-999.0,99,-99.99,,,0.00,Acu-Link.com,2013-10-29 14:07:00,
2013-10-29 10:23:00,54.7,53.6,30.20,South,180,1.7,-999.0,96,-99.99,,,0.00,Acu-Link.com,2013-10-29 14:23:00,
2013-10-29 10:38:00,53.8,53.0,30.20,SSE,157,1.1,-999.0,97,-99.99,,,0.00,Acu-Link.com,2013-10-29 14:38:00,
2013-10-29 10:53:00,54.5,53.7,30.20,SSE,157,4.7,-999.0,97,-99.99,,,0.00,Acu-Link.com,2013-10-29 14:53:00,
2013-10-29 11:08:00,54.7,54.4,30.20,West,270,0.0,-999.0,99,-99.99,,,0.00,Acu-Link.com,2013-10-29 15:08:00,
2013-10-29 11:23:00,55.9,55.1,30.19,SE,135,0.0,-999.0,97,-99.99,,,0.00,Acu-Link.com,2013-10-29 15:23:00,
2013-10-29 11:39:00,55.9,54.8,30.19,SE,135,3.2,-999.0,96,-99.99,,,0.00,Acu-Link.com,2013-10-29 15:39:00,
2013-10-29 11:54:00,55.9,54.8,30.19,South,180,2.7,-999.0,96,-99.99,,,0.00,Acu-Link.com,2013-10-29 15:54:00,
2013-10-29 12:09:00,56.8,55.4,30.19,West,270,2.7,-999.0,95,-99.99,,,0.00,Acu-Link.com,2013-10-29 16:09:00,
2013-10-29 12:24:00,57.9,55.9,30.19,SSE,157,2.7,-999.0,93,-99.99,,,0.00,Acu-Link.com,2013-10-29 16:24:00,
2013-10-29 12:39:00,55.9,54.8,30.19,ESE,112,4.7,-999.0,96,-99.99,,,0.00,Acu-Link.com,2013-10-29 16:39:00,
2013-10-29 12:55:00,55.8,55.0,30.18,North,0,0.0,-999.0,97,-99.99,,,0.00,Acu-Link.com,2013-10-29 16:55:00,
2013-10-29 13:10:00,56.7,55.3,30.17,SE,135,2.7,-999.0,95,-99.99,,,0.00,Acu-Link.com,2013-10-29 17:10:00,
2013-10-29 13:25:00,57.6,55.9,30.17,ESE,112,2.2,-999.0,94,-99.99,,,0.00,Acu-Link.com,2013-10-29 17:25:00,
2013-10-29 13:40:00,58.8,56.2,30.17,SSW,202,2.2,-999.0,91,-99.99,,,0.00,Acu-Link.com,2013-10-29 17:40:00,
2013-10-29 13:56:00,59.0,56.4,30.16,ESE,112,2.2,-999.0,91,-99.99,,,0.00,Acu-Link.com,2013-10-29 17:56:00,
2013-10-29 14:11:00,59.7,56.1,30.14,ENE,67,2.2,-999.0,88,-99.99,,,0.00,Acu-Link.com,2013-10-29 18:11:00,
2013-10-29 14:26:00,60.3,56.4,30.13,ENE,67,1.7,-999.0,87,-99.99,,,0.00,Acu-Link.com,2013-10-29 18:26:00,
2013-10-29 14:41:00,61.3,56.7,30.12,ESE,112,2.7,-999.0,85,-99.99,,,0.00,Acu-Link.com,2013-10-29 18:41:00,
2013-10-29 14:56:00,61.0,56.8,30.12,ESE,112,1.7,-999.0,86,-99.99,,,0.00,Acu-Link.com,2013-10-29 18:56:00,
2013-10-29 15:12:00,61.3,57.1,30.12,SSE,157,0.0,-999.0,86,-99.99,,,0.00,Acu-Link.com,2013-10-29 19:12:00,
2013-10-29 15:27:00,60.6,56.7,30.12,SE,135,3.2,-999.0,87,-99.99,,,0.00,Acu-Link.com,2013-10-29 19:27:00,
2013-10-29 15:42:00,60.8,56.6,30.12,ESE,112,2.7,-999.0,86,-99.99,,,0.00,Acu-Link.com,2013-10-29 19:42:00,
2013-10-29 15:57:00,61.2,57.3,30.11,West,270,1.1,-999.0,87,-99.99,,,0.00,Acu-Link.com,2013-10-29 19:57:00,
2013-10-29 16:12:00,61.0,57.1,30.11,ESE,112,0.0,-999.0,87,-99.99,,,0.00,Acu-Link.com,2013-10-29 20:12:00,
2013-10-29 16:28:00,61.5,57.3,30.11,SE,135,0.0,-999.0,86,-99.99,,,0.00,Acu-Link.com,2013-10-29 20:28:00,
2013-10-29 16:43:00,61.9,57.3,30.11,WSW,247,0.0,-999.0,85,-99.99,,,0.00,Acu-Link.com,2013-10-29 20:43:00,
2013-10-29 16:58:00,60.3,56.7,30.12,SE,135,1.1,-999.0,88,-99.99,,,0.00,Acu-Link.com,2013-10-29 20:58:00,
2013-10-29 17:13:00,60.4,56.8,30.11,ESE,112,0.0,-999.0,88,-99.99,,,0.00,Acu-Link.com,2013-10-29 21:13:00,
2013-10-29 17:28:00,60.6,57.0,30.10,ESE,112,0.0,-999.0,88,-99.99,,,0.00,Acu-Link.com,2013-10-29 21:28:00,
2013-10-29 17:44:00,59.9,57.0,30.09,South,180,0.0,-999.0,90,-99.99,,,0.00,Acu-Link.com,2013-10-29 21:44:00,
2013-10-29 17:59:00,59.4,56.8,30.08,SE,135,0.0,-999.0,91,-99.99,,,0.00,Acu-Link.com,2013-10-29 21:59:00,
2013-10-29 18:14:00,59.0,56.7,30.08,ESE,112,1.7,-999.0,92,-99.99,,,0.00,Acu-Link.com,2013-10-29 22:14:00,
2013-10-29 18:29:00,58.5,56.5,30.08,SE,135,0.0,-999.0,93,-99.99,,,0.00,Acu-Link.com,2013-10-29 22:29:00,
2013-10-29 18:44:00,58.1,56.4,30.09,ESE,112,0.0,-999.0,94,-99.99,,,0.00,Acu-Link.com,2013-10-29 22:44:00,
2013-10-29 19:00:00,57.7,56.3,30.08,ESE,112,0.0,-999.0,95,-99.99,,,0.00,Acu-Link.com,2013-10-29 23:00:00,
2013-10-29 19:15:00,57.6,56.2,30.07,East,90,0.0,-999.0,95,-99.99,,,0.00,Acu-Link.com,2013-10-29 23:15:00,
2013-10-29 19:30:00,57.4,56.0,30.06,ESE,112,2.7,-999.0,95,-99.99,,,0.00,Acu-Link.com,2013-10-29 23:30:00,
2013-10-29 19:45:00,57.4,56.3,30.06,SSE,157,3.7,-999.0,96,-99.99,,,0.00,Acu-Link.com,2013-10-29 23:45:00,
2013-10-29 20:01:00,57.4,56.3,30.06,SSE,157,2.2,-999.0,96,-99.99,,,0.00,Acu-Link.com,2013-10-30 00:01:00,
2013-10-29 20:16:00,57.2,56.1,30.06,NW,315,1.7,-999.0,96,-99.99,,,0.00,Acu-Link.com,2013-10-30 00:16:00,
2013-10-29 20:31:00,57.4,56.0,30.06,SSE,157,1.7,-999.0,95,-99.99,,,0.00,Acu-Link.com,2013-10-30 00:31:00,
2013-10-29 20:46:00,57.4,55.7,30.07,SSE,157,0.0,-999.0,94,-99.99,,,0.00,Acu-Link.com,2013-10-30 00:46:00,
2013-10-29 21:01:00,57.2,55.8,30.08,NE,45,0.0,-999.0,95,-99.99,,,0.00,Acu-Link.com,2013-10-30 01:01:00,
2013-10-29 21:17:00,56.8,55.7,30.08,East,90,0.0,-999.0,96,-99.99,,,0.00,Acu-Link.com,2013-10-30 01:17:00,
2013-10-29 21:32:00,56.7,55.6,30.07,ENE,67,0.0,-999.0,96,-99.99,,,0.00,Acu-Link.com,2013-10-30 01:32:00,
2013-10-29 21:47:00,56.5,55.7,30.08,ESE,112,0.0,-999.0,97,-99.99,,,0.00,Acu-Link.com,2013-10-30 01:47:00,
2013-10-29 22:02:00,56.5,55.7,30.07,SSW,202,0.0,-999.0,97,-99.99,,,0.00,Acu-Link.com,2013-10-30 02:02:00,
2013-10-29 22:17:00,56.5,55.7,30.08,ESE,112,0.0,-999.0,97,-99.99,,,0.00,Acu-Link.com,2013-10-30 02:17:00,
2013-10-29 22:33:00,56.5,55.7,30.08,NNE,22,0.0,-999.0,97,-99.99,,,0.00,Acu-Link.com,2013-10-30 02:33:00,
2013-10-29 22:48:00,56.7,55.6,30.08,NE,45,1.7,-999.0,96,-99.99,,,0.00,Acu-Link.com,2013-10-30 02:48:00,
2013-10-29 23:03:00,56.5,55.7,30.09,NNW,337,1.7,-999.0,97,-99.99,,,0.00,Acu-Link.com,2013-10-30 03:03:00,
2013-10-29 23:18:00,56.3,55.7,30.09,ESE,112,0.0,-999.0,98,-99.99,,,0.01,Acu-Link.com,2013-10-30 03:18:00,
2013-10-29 23:33:00,56.1,55.8,30.08,SE,135,0.0,-999.0,99,-99.99,,,0.01,Acu-Link.com,2013-10-30 03:33:00,
2013-10-29 23:49:00,55.9,55.6,30.08,SSW,202,0.0,-999.0,99,-99.99,,,0.02,Acu-Link.com,2013-10-30 03:49:00,